sensor_id;sensor_type;location;lat;lon;timestamp;temperature;humidity
53310;DHT22;39197;53.200;5.792;2023-05-14T00:00:47;10.90;99.90
53310;DHT22;39197;53.200;5.792;2023-05-14T00:03:13;10.80;99.90
53310;DHT22;39197;53.200;5.792;2023-05-14T00:05:38;10.80;99.90
53310;DHT22;39197;53.200;5.792;2023-05-14T00:08:05;10.80;99.90
53310;DHT22;39197;53.200;5.792;2023-05-14T00:10:31;10.80;99.90
53310;DHT22;39197;53.200;5.792;2023-05-14T00:12:56;10.80;99.90
53310;DHT22;39197;53.200;5.792;2023-05-14T00:15:22;10.80;99.90
53310;DHT22;39197;53.200;5.792;2023-05-14T00:17:47;10.80;99.90
53310;DHT22;39197;53.200;5.792;2023-05-14T00:20:13;10.80;99.90
53310;DHT22;39197;53.200;5.792;2023-05-14T00:22:39;10.80;99.90
53310;DHT22;39197;53.200;5.792;2023-05-14T00:25:06;10.90;99.90
53310;DHT22;39197;53.200;5.792;2023-05-14T00:27:32;10.80;99.90
53310;DHT22;39197;53.200;5.792;2023-05-14T00:29:57;10.80;99.90
53310;DHT22;39197;53.200;5.792;2023-05-14T00:32:24;10.80;99.90
53310;DHT22;39197;53.200;5.792;2023-05-14T00:34:50;10.80;99.90
53310;DHT22;39197;53.200;5.792;2023-05-14T00:37:15;10.80;99.90
53310;DHT22;39197;53.200;5.792;2023-05-14T00:39:41;10.70;99.90
53310;DHT22;39197;53.200;5.792;2023-05-14T00:42:06;10.70;99.90
53310;DHT22;39197;53.200;5.792;2023-05-14T00:44:32;10.70;99.90
53310;DHT22;39197;53.200;5.792;2023-05-14T00:46:58;10.70;99.90
53310;DHT22;39197;53.200;5.792;2023-05-14T00:49:24;10.70;99.90
53310;DHT22;39197;53.200;5.792;2023-05-14T00:51:51;10.70;99.90
53310;DHT22;39197;53.200;5.792;2023-05-14T00:54:17;10.70;99.90
53310;DHT22;39197;53.200;5.792;2023-05-14T00:56:45;10.70;99.90
53310;DHT22;39197;53.200;5.792;2023-05-14T00:59:11;10.70;99.90
53310;DHT22;39197;53.200;5.792;2023-05-14T01:01:36;10.70;99.90
53310;DHT22;39197;53.200;5.792;2023-05-14T01:04:03;10.60;99.90
53310;DHT22;39197;53.200;5.792;2023-05-14T01:06:51;10.60;99.90
53310;DHT22;39197;53.200;5.792;2023-05-14T01:17:29;10.50;99.90
53310;DHT22;39197;53.200;5.792;2023-05-14T01:19:56;10.50;99.90
53310;DHT22;39197;53.200;5.792;2023-05-14T01:22:22;10.60;99.90
53310;DHT22;39197;53.200;5.792;2023-05-14T01:24:48;10.50;99.90
53310;DHT22;39197;53.200;5.792;2023-05-14T01:29:50;10.50;99.90
53310;DHT22;39197;53.200;5.792;2023-05-14T01:32:17;10.50;99.90
53310;DHT22;39197;53.200;5.792;2023-05-14T01:34:46;10.50;99.90
53310;DHT22;39197;53.200;5.792;2023-05-14T01:37:13;10.50;99.90
53310;DHT22;39197;53.200;5.792;2023-05-14T01:39:40;10.60;99.90
53310;DHT22;39197;53.200;5.792;2023-05-14T01:42:07;10.60;99.90
53310;DHT22;39197;53.200;5.792;2023-05-14T01:44:33;10.60;99.90
53310;DHT22;39197;53.200;5.792;2023-05-14T01:46:59;10.60;99.90
53310;DHT22;39197;53.200;5.792;2023-05-14T01:49:24;10.70;99.90
53310;DHT22;39197;53.200;5.792;2023-05-14T01:51:50;10.60;99.90
53310;DHT22;39197;53.200;5.792;2023-05-14T01:54:15;10.60;99.90
53310;DHT22;39197;53.200;5.792;2023-05-14T01:56:41;10.60;99.90
53310;DHT22;39197;53.200;5.792;2023-05-14T01:59:06;10.60;99.90
53310;DHT22;39197;53.200;5.792;2023-05-14T02:01:32;10.70;99.90
53310;DHT22;39197;53.200;5.792;2023-05-14T02:03:58;10.60;99.90
53310;DHT22;39197;53.200;5.792;2023-05-14T02:06:25;10.60;99.90
53310;DHT22;39197;53.200;5.792;2023-05-14T02:08:51;10.60;99.90
53310;DHT22;39197;53.200;5.792;2023-05-14T02:11:16;10.60;99.90
53310;DHT22;39197;53.200;5.792;2023-05-14T02:13:42;10.50;99.90
53310;DHT22;39197;53.200;5.792;2023-05-14T02:16:08;10.60;99.90
53310;DHT22;39197;53.200;5.792;2023-05-14T02:18:33;10.50;99.90
53310;DHT22;39197;53.200;5.792;2023-05-14T02:20:59;10.60;99.90
53310;DHT22;39197;53.200;5.792;2023-05-14T02:23:25;10.60;99.90
53310;DHT22;39197;53.200;5.792;2023-05-14T02:25:50;10.60;99.90
53310;DHT22;39197;53.200;5.792;2023-05-14T02:28:16;10.60;99.90
53310;DHT22;39197;53.200;5.792;2023-05-14T02:30:41;10.50;99.90
53310;DHT22;39197;53.200;5.792;2023-05-14T02:33:07;10.60;99.90
53310;DHT22;39197;53.200;5.792;2023-05-14T02:35:33;10.60;99.90
53310;DHT22;39197;53.200;5.792;2023-05-14T02:37:58;10.60;99.90
53310;DHT22;39197;53.200;5.792;2023-05-14T02:40:24;10.60;99.90
53310;DHT22;39197;53.200;5.792;2023-05-14T02:42:50;10.60;99.90
53310;DHT22;39197;53.200;5.792;2023-05-14T02:45:15;10.60;99.90
53310;DHT22;39197;53.200;5.792;2023-05-14T02:47:41;10.60;99.90
53310;DHT22;39197;53.200;5.792;2023-05-14T02:50:08;10.60;99.90
53310;DHT22;39197;53.200;5.792;2023-05-14T02:52:33;10.50;99.90
53310;DHT22;39197;53.200;5.792;2023-05-14T02:54:59;10.60;99.90
53310;DHT22;39197;53.200;5.792;2023-05-14T02:57:25;10.50;99.90
53310;DHT22;39197;53.200;5.792;2023-05-14T03:02:17;10.60;99.90
53310;DHT22;39197;53.200;5.792;2023-05-14T03:04:42;10.60;99.90
53310;DHT22;39197;53.200;5.792;2023-05-14T03:07:08;10.60;99.90
53310;DHT22;39197;53.200;5.792;2023-05-14T03:09:34;10.60;99.90
53310;DHT22;39197;53.200;5.792;2023-05-14T03:11:59;10.60;99.90
53310;DHT22;39197;53.200;5.792;2023-05-14T03:14:25;10.60;99.90
53310;DHT22;39197;53.200;5.792;2023-05-14T03:16:50;10.50;99.90
53310;DHT22;39197;53.200;5.792;2023-05-14T03:19:16;10.60;99.90
53310;DHT22;39197;53.200;5.792;2023-05-14T03:21:41;10.60;99.90
53310;DHT22;39197;53.200;5.792;2023-05-14T03:24:07;10.60;99.90
53310;DHT22;39197;53.200;5.792;2023-05-14T03:26:33;10.60;99.90
53310;DHT22;39197;53.200;5.792;2023-05-14T03:28:58;10.70;99.90
53310;DHT22;39197;53.200;5.792;2023-05-14T03:31:24;10.70;99.90
53310;DHT22;39197;53.200;5.792;2023-05-14T03:33:50;10.70;99.90
53310;DHT22;39197;53.200;5.792;2023-05-14T03:36:16;10.60;99.90
53310;DHT22;39197;53.200;5.792;2023-05-14T03:38:41;10.80;99.90
53310;DHT22;39197;53.200;5.792;2023-05-14T03:41:07;10.70;99.90
53310;DHT22;39197;53.200;5.792;2023-05-14T03:43:33;10.80;99.90
53310;DHT22;39197;53.200;5.792;2023-05-14T03:45:59;10.80;99.90
53310;DHT22;39197;53.200;5.792;2023-05-14T03:48:24;10.80;99.90
53310;DHT22;39197;53.200;5.792;2023-05-14T03:50:50;10.80;99.90
53310;DHT22;39197;53.200;5.792;2023-05-14T03:53:16;10.80;99.90
53310;DHT22;39197;53.200;5.792;2023-05-14T03:55:42;10.80;99.90
53310;DHT22;39197;53.200;5.792;2023-05-14T03:58:07;10.80;99.90
53310;DHT22;39197;53.200;5.792;2023-05-14T04:00:42;10.80;99.90
53310;DHT22;39197;53.200;5.792;2023-05-14T04:03:07;10.70;99.90
53310;DHT22;39197;53.200;5.792;2023-05-14T04:05:34;10.70;99.90
53310;DHT22;39197;53.200;5.792;2023-05-14T04:08:00;10.70;99.90
53310;DHT22;39197;53.200;5.792;2023-05-14T04:10:26;10.70;99.90
53310;DHT22;39197;53.200;5.792;2023-05-14T04:12:52;10.70;99.90
53310;DHT22;39197;53.200;5.792;2023-05-14T04:15:17;10.70;99.90
53310;DHT22;39197;53.200;5.792;2023-05-14T04:17:43;10.80;99.90
53310;DHT22;39197;53.200;5.792;2023-05-14T04:20:09;10.80;99.90
53310;DHT22;39197;53.200;5.792;2023-05-14T04:22:34;10.80;99.90
53310;DHT22;39197;53.200;5.792;2023-05-14T04:25:00;10.90;99.90
53310;DHT22;39197;53.200;5.792;2023-05-14T04:27:27;10.90;99.90
53310;DHT22;39197;53.200;5.792;2023-05-14T04:29:53;10.90;99.90
53310;DHT22;39197;53.200;5.792;2023-05-14T04:32:18;10.90;99.90
53310;DHT22;39197;53.200;5.792;2023-05-14T04:34:44;11.00;99.90
53310;DHT22;39197;53.200;5.792;2023-05-14T04:37:11;10.90;99.90
53310;DHT22;39197;53.200;5.792;2023-05-14T04:39:37;11.00;99.90
53310;DHT22;39197;53.200;5.792;2023-05-14T04:42:03;11.00;99.90
53310;DHT22;39197;53.200;5.792;2023-05-14T04:44:28;11.00;99.90
53310;DHT22;39197;53.200;5.792;2023-05-14T04:46:54;11.00;99.90
53310;DHT22;39197;53.200;5.792;2023-05-14T04:49:19;11.10;99.90
53310;DHT22;39197;53.200;5.792;2023-05-14T04:51:45;11.10;99.90
53310;DHT22;39197;53.200;5.792;2023-05-14T04:54:12;11.10;99.90
53310;DHT22;39197;53.200;5.792;2023-05-14T04:56:38;11.20;99.90
53310;DHT22;39197;53.200;5.792;2023-05-14T04:59:03;11.20;99.90
53310;DHT22;39197;53.200;5.792;2023-05-14T05:01:29;11.20;99.90
53310;DHT22;39197;53.200;5.792;2023-05-14T05:03:55;11.20;99.90
53310;DHT22;39197;53.200;5.792;2023-05-14T05:06:22;11.20;99.90
53310;DHT22;39197;53.200;5.792;2023-05-14T05:08:47;11.20;99.90
53310;DHT22;39197;53.200;5.792;2023-05-14T05:11:13;11.10;99.90
53310;DHT22;39197;53.200;5.792;2023-05-14T05:13:39;11.20;99.90
53310;DHT22;39197;53.200;5.792;2023-05-14T05:16:05;11.20;99.90
53310;DHT22;39197;53.200;5.792;2023-05-14T05:18:31;11.30;99.90
53310;DHT22;39197;53.200;5.792;2023-05-14T05:20:57;11.30;99.90
53310;DHT22;39197;53.200;5.792;2023-05-14T05:23:22;11.30;99.90
53310;DHT22;39197;53.200;5.792;2023-05-14T05:25:48;11.30;99.90
53310;DHT22;39197;53.200;5.792;2023-05-14T05:28:14;11.30;99.90
53310;DHT22;39197;53.200;5.792;2023-05-14T05:30:40;11.40;99.90
53310;DHT22;39197;53.200;5.792;2023-05-14T05:33:06;11.40;99.90
53310;DHT22;39197;53.200;5.792;2023-05-14T05:35:32;11.50;99.90
53310;DHT22;39197;53.200;5.792;2023-05-14T05:37:57;11.60;99.90
53310;DHT22;39197;53.200;5.792;2023-05-14T05:40:23;11.70;99.90
53310;DHT22;39197;53.200;5.792;2023-05-14T05:42:48;11.80;99.90
53310;DHT22;39197;53.200;5.792;2023-05-14T05:45:14;11.90;99.90
53310;DHT22;39197;53.200;5.792;2023-05-14T05:47:39;12.00;99.90
53310;DHT22;39197;53.200;5.792;2023-05-14T05:50:06;12.10;99.90
53310;DHT22;39197;53.200;5.792;2023-05-14T05:52:32;12.30;99.90
53310;DHT22;39197;53.200;5.792;2023-05-14T05:54:57;12.30;99.90
53310;DHT22;39197;53.200;5.792;2023-05-14T05:57:23;12.40;99.90
53310;DHT22;39197;53.200;5.792;2023-05-14T05:59:51;12.50;99.90
53310;DHT22;39197;53.200;5.792;2023-05-14T06:02:17;12.60;99.90
53310;DHT22;39197;53.200;5.792;2023-05-14T06:04:43;12.60;99.90
53310;DHT22;39197;53.200;5.792;2023-05-14T06:07:08;12.80;99.90
53310;DHT22;39197;53.200;5.792;2023-05-14T06:09:34;12.80;99.90
53310;DHT22;39197;53.200;5.792;2023-05-14T06:11:59;12.80;99.90
53310;DHT22;39197;53.200;5.792;2023-05-14T06:14:25;12.90;99.90
53310;DHT22;39197;53.200;5.792;2023-05-14T06:16:51;13.00;99.90
53310;DHT22;39197;53.200;5.792;2023-05-14T06:19:16;12.90;99.90
53310;DHT22;39197;53.200;5.792;2023-05-14T06:21:42;13.10;99.90
53310;DHT22;39197;53.200;5.792;2023-05-14T06:24:08;13.10;99.90
53310;DHT22;39197;53.200;5.792;2023-05-14T06:26:34;13.10;99.90
53310;DHT22;39197;53.200;5.792;2023-05-14T06:29:00;13.30;99.90
53310;DHT22;39197;53.200;5.792;2023-05-14T06:31:25;13.40;99.90
53310;DHT22;39197;53.200;5.792;2023-05-14T06:33:51;13.50;99.90
53310;DHT22;39197;53.200;5.792;2023-05-14T06:36:16;13.60;99.90
53310;DHT22;39197;53.200;5.792;2023-05-14T06:38:42;13.80;99.90
53310;DHT22;39197;53.200;5.792;2023-05-14T06:41:07;13.80;99.90
53310;DHT22;39197;53.200;5.792;2023-05-14T06:43:33;13.80;99.90
53310;DHT22;39197;53.200;5.792;2023-05-14T06:45:59;13.70;99.90
53310;DHT22;39197;53.200;5.792;2023-05-14T06:48:25;13.60;99.90
53310;DHT22;39197;53.200;5.792;2023-05-14T06:50:53;13.60;99.90
53310;DHT22;39197;53.200;5.792;2023-05-14T06:53:19;13.80;99.90
53310;DHT22;39197;53.200;5.792;2023-05-14T06:55:47;13.80;99.90
53310;DHT22;39197;53.200;5.792;2023-05-14T06:58:12;13.80;99.90
53310;DHT22;39197;53.200;5.792;2023-05-14T07:00:38;13.70;99.90
53310;DHT22;39197;53.200;5.792;2023-05-14T07:03:04;13.70;99.90
53310;DHT22;39197;53.200;5.792;2023-05-14T07:05:30;13.90;99.90
53310;DHT22;39197;53.200;5.792;2023-05-14T07:07:56;14.00;99.90
53310;DHT22;39197;53.200;5.792;2023-05-14T07:10:21;14.10;99.90
53310;DHT22;39197;53.200;5.792;2023-05-14T07:12:48;14.30;99.90
53310;DHT22;39197;53.200;5.792;2023-05-14T07:15:13;14.30;99.90
53310;DHT22;39197;53.200;5.792;2023-05-14T07:17:39;14.40;99.90
53310;DHT22;39197;53.200;5.792;2023-05-14T07:20:05;14.50;99.90
53310;DHT22;39197;53.200;5.792;2023-05-14T07:22:31;14.60;99.90
53310;DHT22;39197;53.200;5.792;2023-05-14T07:24:56;14.70;99.90
53310;DHT22;39197;53.200;5.792;2023-05-14T07:27:22;15.00;99.90
53310;DHT22;39197;53.200;5.792;2023-05-14T07:29:49;14.90;99.90
53310;DHT22;39197;53.200;5.792;2023-05-14T07:32:14;15.10;99.90
53310;DHT22;39197;53.200;5.792;2023-05-14T07:34:40;15.20;99.90
53310;DHT22;39197;53.200;5.792;2023-05-14T07:37:05;15.20;99.90
53310;DHT22;39197;53.200;5.792;2023-05-14T07:39:31;15.50;99.90
53310;DHT22;39197;53.200;5.792;2023-05-14T07:41:57;15.80;99.90
53310;DHT22;39197;53.200;5.792;2023-05-14T07:44:22;15.60;99.90
53310;DHT22;39197;53.200;5.792;2023-05-14T07:46:48;15.40;99.90
53310;DHT22;39197;53.200;5.792;2023-05-14T07:49:14;15.50;99.90
53310;DHT22;39197;53.200;5.792;2023-05-14T07:51:39;15.60;99.90
53310;DHT22;39197;53.200;5.792;2023-05-14T07:54:05;15.70;99.90
53310;DHT22;39197;53.200;5.792;2023-05-14T07:56:30;16.00;99.90
53310;DHT22;39197;53.200;5.792;2023-05-14T07:58:56;15.80;99.90
53310;DHT22;39197;53.200;5.792;2023-05-14T08:01:22;15.90;99.90
53310;DHT22;39197;53.200;5.792;2023-05-14T08:03:47;15.80;99.90
53310;DHT22;39197;53.200;5.792;2023-05-14T08:06:13;15.80;99.90
53310;DHT22;39197;53.200;5.792;2023-05-14T08:08:39;15.60;99.90
53310;DHT22;39197;53.200;5.792;2023-05-14T08:11:05;15.60;99.90
53310;DHT22;39197;53.200;5.792;2023-05-14T08:13:31;15.50;99.90
53310;DHT22;39197;53.200;5.792;2023-05-14T08:15:56;15.50;99.90
53310;DHT22;39197;53.200;5.792;2023-05-14T08:18:22;15.60;99.90
53310;DHT22;39197;53.200;5.792;2023-05-14T08:20:48;16.00;99.90
53310;DHT22;39197;53.200;5.792;2023-05-14T08:23:14;16.00;99.90
53310;DHT22;39197;53.200;5.792;2023-05-14T08:25:39;16.10;99.90
53310;DHT22;39197;53.200;5.792;2023-05-14T08:28:05;16.00;99.90
53310;DHT22;39197;53.200;5.792;2023-05-14T08:30:31;16.10;99.90
53310;DHT22;39197;53.200;5.792;2023-05-14T08:32:57;16.50;99.90
53310;DHT22;39197;53.200;5.792;2023-05-14T08:35:23;17.10;99.90
53310;DHT22;39197;53.200;5.792;2023-05-14T08:37:48;17.50;99.90
53310;DHT22;39197;53.200;5.792;2023-05-14T08:40:15;17.70;99.90
53310;DHT22;39197;53.200;5.792;2023-05-14T08:42:40;17.50;99.90
53310;DHT22;39197;53.200;5.792;2023-05-14T08:45:22;17.40;99.90
53310;DHT22;39197;53.200;5.792;2023-05-14T08:47:50;17.40;99.90
53310;DHT22;39197;53.200;5.792;2023-05-14T08:50:17;17.60;99.90
53310;DHT22;39197;53.200;5.792;2023-05-14T08:52:44;17.70;99.90
53310;DHT22;39197;53.200;5.792;2023-05-14T08:55:11;17.70;99.90
53310;DHT22;39197;53.200;5.792;2023-05-14T08:57:37;17.80;99.90
53310;DHT22;39197;53.200;5.792;2023-05-14T09:02:43;18.20;99.90
53310;DHT22;39197;53.200;5.792;2023-05-14T09:05:10;18.40;99.90
53310;DHT22;39197;53.200;5.792;2023-05-14T09:07:36;18.80;99.90
53310;DHT22;39197;53.200;5.792;2023-05-14T09:10:03;18.70;99.90
53310;DHT22;39197;53.200;5.792;2023-05-14T09:12:29;18.70;99.90
53310;DHT22;39197;53.200;5.792;2023-05-14T09:14:55;18.50;99.90
53310;DHT22;39197;53.200;5.792;2023-05-14T09:17:21;18.80;99.90
53310;DHT22;39197;53.200;5.792;2023-05-14T09:19:49;19.10;99.90
53310;DHT22;39197;53.200;5.792;2023-05-14T09:22:17;19.80;99.90
53310;DHT22;39197;53.200;5.792;2023-05-14T09:24:43;20.00;99.90
53310;DHT22;39197;53.200;5.792;2023-05-14T09:27:17;20.00;99.90
53310;DHT22;39197;53.200;5.792;2023-05-14T09:29:43;20.00;99.90
53310;DHT22;39197;53.200;5.792;2023-05-14T09:32:09;19.90;99.90
53310;DHT22;39197;53.200;5.792;2023-05-14T09:34:35;20.10;99.90
53310;DHT22;39197;53.200;5.792;2023-05-14T09:37:05;20.80;99.90
53310;DHT22;39197;53.200;5.792;2023-05-14T09:39:32;21.30;99.90
53310;DHT22;39197;53.200;5.792;2023-05-14T09:41:58;20.90;99.90
53310;DHT22;39197;53.200;5.792;2023-05-14T09:44:25;20.60;99.90
53310;DHT22;39197;53.200;5.792;2023-05-14T09:46:51;20.80;99.90
53310;DHT22;39197;53.200;5.792;2023-05-14T09:49:18;20.70;99.90
53310;DHT22;39197;53.200;5.792;2023-05-14T09:51:44;20.70;99.90
53310;DHT22;39197;53.200;5.792;2023-05-14T09:54:09;21.10;99.90
53310;DHT22;39197;53.200;5.792;2023-05-14T09:56:36;20.90;99.90
53310;DHT22;39197;53.200;5.792;2023-05-14T09:59:02;21.30;99.90
53310;DHT22;39197;53.200;5.792;2023-05-14T10:01:30;21.60;99.90
53310;DHT22;39197;53.200;5.792;2023-05-14T10:03:55;21.20;99.90
53310;DHT22;39197;53.200;5.792;2023-05-14T10:06:29;21.70;99.90
53310;DHT22;39197;53.200;5.792;2023-05-14T10:09:00;21.70;99.90
53310;DHT22;39197;53.200;5.792;2023-05-14T10:11:30;21.80;99.90
53310;DHT22;39197;53.200;5.792;2023-05-14T10:14:07;21.40;99.90
53310;DHT22;39197;53.200;5.792;2023-05-14T10:16:36;21.50;99.90
53310;DHT22;39197;53.200;5.792;2023-05-14T10:19:09;22.00;99.90
53310;DHT22;39197;53.200;5.792;2023-05-14T10:21:37;22.20;99.90
53310;DHT22;39197;53.200;5.792;2023-05-14T10:24:06;21.70;99.90
53310;DHT22;39197;53.200;5.792;2023-05-14T10:26:35;21.60;99.90
53310;DHT22;39197;53.200;5.792;2023-05-14T10:29:08;21.50;99.90
53310;DHT22;39197;53.200;5.792;2023-05-14T10:34:41;22.30;99.90
53310;DHT22;39197;53.200;5.792;2023-05-14T10:37:10;23.10;99.90
53310;DHT22;39197;53.200;5.792;2023-05-14T10:42:07;22.80;99.90
53310;DHT22;39197;53.200;5.792;2023-05-14T10:44:34;23.00;99.90
53310;DHT22;39197;53.200;5.792;2023-05-14T10:47:00;22.60;99.90
53310;DHT22;39197;53.200;5.792;2023-05-14T10:49:26;22.30;99.90
53310;DHT22;39197;53.200;5.792;2023-05-14T10:51:52;22.30;99.90
53310;DHT22;39197;53.200;5.792;2023-05-14T10:54:18;21.90;99.90
53310;DHT22;39197;53.200;5.792;2023-05-14T10:56:47;22.90;99.90
53310;DHT22;39197;53.200;5.792;2023-05-14T10:59:15;22.80;99.90
53310;DHT22;39197;53.200;5.792;2023-05-14T11:01:44;22.20;99.90
53310;DHT22;39197;53.200;5.792;2023-05-14T11:04:17;22.30;99.90
53310;DHT22;39197;53.200;5.792;2023-05-14T11:06:46;23.30;99.90
53310;DHT22;39197;53.200;5.792;2023-05-14T11:09:16;23.10;99.90
53310;DHT22;39197;53.200;5.792;2023-05-14T11:11:42;23.70;99.90
53310;DHT22;39197;53.200;5.792;2023-05-14T11:14:08;23.10;99.90
53310;DHT22;39197;53.200;5.792;2023-05-14T11:16:34;23.00;99.90
53310;DHT22;39197;53.200;5.792;2023-05-14T11:19:02;23.30;99.90
53310;DHT22;39197;53.200;5.792;2023-05-14T11:21:29;22.90;99.90
53310;DHT22;39197;53.200;5.792;2023-05-14T11:23:55;23.00;99.90
53310;DHT22;39197;53.200;5.792;2023-05-14T11:26:22;22.70;99.90
53310;DHT22;39197;53.200;5.792;2023-05-14T11:28:48;23.30;99.90
53310;DHT22;39197;53.200;5.792;2023-05-14T11:31:14;22.90;99.90
53310;DHT22;39197;53.200;5.792;2023-05-14T11:33:40;23.40;99.90
53310;DHT22;39197;53.200;5.792;2023-05-14T11:36:05;24.00;99.90
53310;DHT22;39197;53.200;5.792;2023-05-14T11:38:31;24.00;99.90
53310;DHT22;39197;53.200;5.792;2023-05-14T11:40:57;23.70;99.90
53310;DHT22;39197;53.200;5.792;2023-05-14T11:43:24;23.80;99.90
53310;DHT22;39197;53.200;5.792;2023-05-14T11:45:53;23.80;99.90
53310;DHT22;39197;53.200;5.792;2023-05-14T11:48:20;23.80;99.90
53310;DHT22;39197;53.200;5.792;2023-05-14T11:50:47;24.20;99.90
53310;DHT22;39197;53.200;5.792;2023-05-14T11:53:19;24.70;99.90
53310;DHT22;39197;53.200;5.792;2023-05-14T11:55:45;24.90;99.90
53310;DHT22;39197;53.200;5.792;2023-05-14T11:58:12;24.60;99.90
53310;DHT22;39197;53.200;5.792;2023-05-14T12:00:38;25.40;99.90
53310;DHT22;39197;53.200;5.792;2023-05-14T12:03:04;25.40;99.90
53310;DHT22;39197;53.200;5.792;2023-05-14T12:05:30;25.50;99.90
53310;DHT22;39197;53.200;5.792;2023-05-14T12:07:56;25.40;99.90
53310;DHT22;39197;53.200;5.792;2023-05-14T12:10:21;24.30;99.90
53310;DHT22;39197;53.200;5.792;2023-05-14T12:12:47;24.40;99.90
53310;DHT22;39197;53.200;5.792;2023-05-14T12:15:14;23.90;99.90
53310;DHT22;39197;53.200;5.792;2023-05-14T12:17:41;24.50;99.90
53310;DHT22;39197;53.200;5.792;2023-05-14T12:20:08;24.40;99.90
53310;DHT22;39197;53.200;5.792;2023-05-14T12:22:35;24.20;99.90
53310;DHT22;39197;53.200;5.792;2023-05-14T12:25:01;23.70;99.90
53310;DHT22;39197;53.200;5.792;2023-05-14T12:27:28;23.90;99.90
53310;DHT22;39197;53.200;5.792;2023-05-14T12:30:00;23.50;99.90
53310;DHT22;39197;53.200;5.792;2023-05-14T12:32:30;23.60;99.90
53310;DHT22;39197;53.200;5.792;2023-05-14T12:34:55;23.40;99.90
53310;DHT22;39197;53.200;5.792;2023-05-14T12:37:21;23.80;99.90
53310;DHT22;39197;53.200;5.792;2023-05-14T12:39:47;23.80;99.90
53310;DHT22;39197;53.200;5.792;2023-05-14T12:42:14;24.00;99.90
53310;DHT22;39197;53.200;5.792;2023-05-14T12:44:40;24.10;99.90
53310;DHT22;39197;53.200;5.792;2023-05-14T12:47:05;24.70;99.90
53310;DHT22;39197;53.200;5.792;2023-05-14T12:49:31;24.40;99.90
53310;DHT22;39197;53.200;5.792;2023-05-14T12:51:57;24.70;99.90
53310;DHT22;39197;53.200;5.792;2023-05-14T12:54:22;25.30;99.90
53310;DHT22;39197;53.200;5.792;2023-05-14T12:56:48;25.20;99.90
53310;DHT22;39197;53.200;5.792;2023-05-14T12:59:14;25.00;99.90
53310;DHT22;39197;53.200;5.792;2023-05-14T13:01:40;24.90;99.90
53310;DHT22;39197;53.200;5.792;2023-05-14T13:04:06;24.90;99.90
53310;DHT22;39197;53.200;5.792;2023-05-14T13:06:33;25.30;99.90
53310;DHT22;39197;53.200;5.792;2023-05-14T13:08:59;25.40;99.90
53310;DHT22;39197;53.200;5.792;2023-05-14T13:11:27;25.20;99.90
53310;DHT22;39197;53.200;5.792;2023-05-14T13:13:54;24.90;99.90
53310;DHT22;39197;53.200;5.792;2023-05-14T13:16:20;24.90;99.90
53310;DHT22;39197;53.200;5.792;2023-05-14T13:18:46;24.90;99.90
53310;DHT22;39197;53.200;5.792;2023-05-14T13:21:11;25.40;99.90
53310;DHT22;39197;53.200;5.792;2023-05-14T13:23:37;24.80;99.90
53310;DHT22;39197;53.200;5.792;2023-05-14T13:26:04;24.60;99.90
53310;DHT22;39197;53.200;5.792;2023-05-14T13:28:29;24.90;99.90
53310;DHT22;39197;53.200;5.792;2023-05-14T13:33:29;24.30;99.90
53310;DHT22;39197;53.200;5.792;2023-05-14T13:35:54;24.00;99.90
53310;DHT22;39197;53.200;5.792;2023-05-14T13:38:20;24.20;99.90
53310;DHT22;39197;53.200;5.792;2023-05-14T13:40:45;24.00;99.90
53310;DHT22;39197;53.200;5.792;2023-05-14T13:43:11;23.80;99.90
53310;DHT22;39197;53.200;5.792;2023-05-14T13:45:37;23.60;99.90
53310;DHT22;39197;53.200;5.792;2023-05-14T13:48:02;23.60;99.90
53310;DHT22;39197;53.200;5.792;2023-05-14T13:50:28;23.40;99.90
53310;DHT22;39197;53.200;5.792;2023-05-14T13:52:53;23.80;99.90
53310;DHT22;39197;53.200;5.792;2023-05-14T13:55:19;23.60;99.90
53310;DHT22;39197;53.200;5.792;2023-05-14T13:57:45;24.10;99.90
53310;DHT22;39197;53.200;5.792;2023-05-14T14:00:11;23.90;99.90
53310;DHT22;39197;53.200;5.792;2023-05-14T14:02:37;23.90;99.90
53310;DHT22;39197;53.200;5.792;2023-05-14T14:05:03;23.90;99.90
53310;DHT22;39197;53.200;5.792;2023-05-14T14:07:29;23.50;99.90
53310;DHT22;39197;53.200;5.792;2023-05-14T14:09:55;23.60;99.90
53310;DHT22;39197;53.200;5.792;2023-05-14T14:12:20;23.20;99.90
53310;DHT22;39197;53.200;5.792;2023-05-14T14:14:46;22.90;99.90
53310;DHT22;39197;53.200;5.792;2023-05-14T14:17:12;22.50;99.90
53310;DHT22;39197;53.200;5.792;2023-05-14T14:19:37;22.40;99.90
53310;DHT22;39197;53.200;5.792;2023-05-14T14:22:03;22.10;99.90
53310;DHT22;39197;53.200;5.792;2023-05-14T14:24:29;21.90;99.90
53310;DHT22;39197;53.200;5.792;2023-05-14T14:26:55;21.90;99.90
53310;DHT22;39197;53.200;5.792;2023-05-14T14:29:20;21.80;99.90
53310;DHT22;39197;53.200;5.792;2023-05-14T14:31:48;21.60;99.90
53310;DHT22;39197;53.200;5.792;2023-05-14T14:34:13;21.50;99.90
53310;DHT22;39197;53.200;5.792;2023-05-14T14:36:39;21.40;99.90
53310;DHT22;39197;53.200;5.792;2023-05-14T14:39:05;21.60;99.90
53310;DHT22;39197;53.200;5.792;2023-05-14T14:41:30;21.70;99.90
53310;DHT22;39197;53.200;5.792;2023-05-14T14:43:56;22.00;99.90
53310;DHT22;39197;53.200;5.792;2023-05-14T14:46:22;21.80;99.90
53310;DHT22;39197;53.200;5.792;2023-05-14T14:48:47;21.50;99.90
53310;DHT22;39197;53.200;5.792;2023-05-14T14:51:13;22.10;99.90
53310;DHT22;39197;53.200;5.792;2023-05-14T14:53:38;21.70;99.90
53310;DHT22;39197;53.200;5.792;2023-05-14T14:56:05;21.70;99.90
53310;DHT22;39197;53.200;5.792;2023-05-14T14:58:30;21.80;99.90
53310;DHT22;39197;53.200;5.792;2023-05-14T15:00:57;21.80;99.90
53310;DHT22;39197;53.200;5.792;2023-05-14T15:03:23;21.90;99.90
53310;DHT22;39197;53.200;5.792;2023-05-14T15:05:49;21.80;99.90
53310;DHT22;39197;53.200;5.792;2023-05-14T15:08:16;21.60;99.90
53310;DHT22;39197;53.200;5.792;2023-05-14T15:10:43;21.50;99.90
53310;DHT22;39197;53.200;5.792;2023-05-14T15:13:08;21.70;99.90
53310;DHT22;39197;53.200;5.792;2023-05-14T15:15:35;21.50;99.90
53310;DHT22;39197;53.200;5.792;2023-05-14T15:18:02;21.30;99.90
53310;DHT22;39197;53.200;5.792;2023-05-14T15:20:28;21.40;99.90
53310;DHT22;39197;53.200;5.792;2023-05-14T15:22:54;21.00;99.90
53310;DHT22;39197;53.200;5.792;2023-05-14T15:25:20;20.60;99.90
53310;DHT22;39197;53.200;5.792;2023-05-14T15:27:46;20.40;99.90
53310;DHT22;39197;53.200;5.792;2023-05-14T15:30:13;20.20;99.90
53310;DHT22;39197;53.200;5.792;2023-05-14T15:32:39;19.90;99.90
53310;DHT22;39197;53.200;5.792;2023-05-14T15:35:05;20.20;99.90
53310;DHT22;39197;53.200;5.792;2023-05-14T15:37:39;20.10;99.90
53310;DHT22;39197;53.200;5.792;2023-05-14T15:40:06;20.10;99.90
53310;DHT22;39197;53.200;5.792;2023-05-14T15:42:34;20.10;99.90
53310;DHT22;39197;53.200;5.792;2023-05-14T15:45:00;19.60;99.90
53310;DHT22;39197;53.200;5.792;2023-05-14T15:47:25;19.60;99.90